Time;durP1;ratioP1;P1;durP2;ratioP2;P2;SDS_P1;SDS_P2;PMS_P1;PMS_P2;Temp;Humidity;BMP_temperature;BMP_pressure;BME280_temperature;BME280_humidity;BME280_pressure;Samples;Min_cycle;Max_cycle;Signal;HPM_P1;HPM_P2
2022/07/19 00:00:02;;;;;;;13.50;12.53;;;19.00;99.90;;;;;;5043401;28;20623;-69
2022/07/19 00:02:29;;;;;;;13.43;11.70;;;19.00;99.90;;;;;;5050234;28;20494;-68
2022/07/19 00:04:58;;;;;;;12.03;11.23;;;19.00;99.90;;;;;;5048660;28;20950;-68
2022/07/19 00:07:24;;;;;;;15.00;12.23;;;18.90;99.90;;;;;;5041528;28;20455;-68
2022/07/19 00:09:52;;;;;;;16.77;12.37;;;18.90;99.90;;;;;;5041546;28;20461;-68
2022/07/19 00:12:18;;;;;;;13.40;12.30;;;19.00;99.90;;;;;;5044807;28;20892;-68
2022/07/19 00:15:01;;;;;;;12.30;11.40;;;19.00;99.90;;;;;;5036314;28;20826;-68
2022/07/19 00:17:27;;;;;;;14.07;12.83;;;19.00;99.90;;;;;;5045413;28;20871;-68
2022/07/19 00:19:55;;;;;;;12.50;11.60;;;18.90;99.90;;;;;;5046069;28;20461;-68
2022/07/19 00:22:23;;;;;;;13.97;12.43;;;18.90;99.90;;;;;;5045369;28;20483;-68
2022/07/19 00:24:50;;;;;;;12.70;11.90;;;18.80;99.90;;;;;;5040765;28;20689;-68
2022/07/19 00:27:17;;;;;;;18.87;11.77;;;18.80;99.90;;;;;;5042365;28;20469;-68
2022/07/19 00:29:44;;;;;;;13.87;12.57;;;18.70;99.90;;;;;;5045701;28;20468;-68
2022/07/19 00:32:11;;;;;;;13.97;12.87;;;18.60;99.90;;;;;;5049401;28;20553;-68
2022/07/19 00:34:39;;;;;;;16.67;13.50;;;18.50;99.90;;;;;;5043116;28;20466;-67
2022/07/19 00:37:06;;;;;;;14.23;12.90;;;18.50;99.90;;;;;;5042537;28;20523;-67
2022/07/19 00:39:34;;;;;;;16.20;13.40;;;18.40;99.90;;;;;;5045966;28;20452;-68
2022/07/19 00:42:02;;;;;;;14.00;12.90;;;18.40;99.90;;;;;;5038603;28;20471;-67
2022/07/19 00:44:30;;;;;;;13.73;12.70;;;18.40;99.90;;;;;;5042477;28;20958;-68
2022/07/19 00:46:57;;;;;;;19.43;12.77;;;18.20;99.90;;;;;;5044158;28;20467;-68
2022/07/19 00:49:24;;;;;;;14.40;13.00;;;18.30;99.90;;;;;;5042988;28;20466;-67
2022/07/19 00:51:55;;;;;;;12.80;11.80;;;18.30;99.90;;;;;;5040745;28;20823;-68
2022/07/19 00:54:23;;;;;;;18.90;13.33;;;18.30;99.90;;;;;;5044733;28;20464;-68
2022/07/19 00:56:55;;;;;;;16.93;12.47;;;18.30;99.90;;;;;;5039645;28;20816;-68
2022/07/19 00:59:22;;;;;;;15.07;12.83;;;18.30;99.90;;;;;;5045309;28;20473;-68
2022/07/19 01:01:49;;;;;;;13.90;12.50;;;18.20;99.90;;;;;;5047383;28;20703;-67
2022/07/19 01:04:17;;;;;;;13.90;12.57;;;18.20;99.90;;;;;;5043371;28;20498;-69
2022/07/19 01:06:45;;;;;;;15.10;13.60;;;18.20;99.90;;;;;;5040921;28;20464;-68
2022/07/19 01:09:12;;;;;;;15.13;13.57;;;18.20;99.90;;;;;;5038636;28;20468;-68
2022/07/19 01:11:40;;;;;;;13.03;11.77;;;18.20;99.90;;;;;;5040304;28;20479;-68
2022/07/19 01:14:09;;;;;;;14.40;13.00;;;18.10;99.90;;;;;;5044932;28;20464;-68
2022/07/19 01:16:35;;;;;;;12.63;11.43;;;18.10;99.90;;;;;;5039797;28;20482;-68
2022/07/19 01:19:06;;;;;;;13.83;12.77;;;18.00;99.90;;;;;;5040869;28;20956;-68
2022/07/19 01:21:35;;;;;;;13.70;12.60;;;18.00;99.90;;;;;;5042741;28;20467;-68
2022/07/19 01:24:01;;;;;;;16.40;13.17;;;17.90;99.90;;;;;;5038037;28;20492;-68
2022/07/19 01:26:43;;;;;;;13.17;12.10;;;17.90;99.90;;;;;;5037639;28;20460;-69
2022/07/19 01:29:16;;;;;;;12.50;11.63;;;17.90;99.90;;;;;;5044293;28;20837;-68
2022/07/19 01:31:43;;;;;;;14.03;12.77;;;17.80;99.90;;;;;;5046822;28;20467;-68
2022/07/19 01:34:10;;;;;;;13.37;12.57;;;17.70;99.90;;;;;;5040742;28;20470;-67
2022/07/19 01:36:39;;;;;;;13.00;12.10;;;17.60;99.90;;;;;;5042741;28;20882;-68
2022/07/19 01:39:05;;;;;;;13.43;12.40;;;17.50;99.90;;;;;;5041567;28;20464;-68
2022/07/19 01:41:33;;;;;;;16.87;12.20;;;17.30;99.90;;;;;;5043331;28;20471;-68
2022/07/19 01:44:00;;;;;;;12.47;11.53;;;17.20;99.90;;;;;;5042856;28;20496;-68
2022/07/19 01:46:27;;;;;;;12.03;11.33;;;17.10;99.90;;;;;;5041951;28;21020;-67
2022/07/19 01:48:54;;;;;;;15.60;12.43;;;17.00;99.90;;;;;;5040524;28;20821;-68
2022/07/19 01:51:22;;;;;;;26.87;11.57;;;16.90;99.90;;;;;;5045150;28;20821;-68
2022/07/19 01:53:50;;;;;;;17.60;12.43;;;16.90;99.90;;;;;;5036216;28;20472;-67
2022/07/19 01:56:17;;;;;;;22.20;12.40;;;17.00;99.90;;;;;;5040093;28;20472;-67
2022/07/19 01:59:00;;;;;;;19.50;12.00;;;17.10;99.90;;;;;;5041730;28;20460;-67
2022/07/19 02:01:26;;;;;;;18.00;13.30;;;17.10;99.90;;;;;;5041303;28;20974;-67
2022/07/19 02:03:53;;;;;;;13.03;11.83;;;17.20;99.90;;;;;;5035056;28;20492;-68
2022/07/19 02:06:21;;;;;;;22.83;12.33;;;17.30;99.90;;;;;;5044867;28;20461;-68
2022/07/19 02:08:49;;;;;;;15.73;14.13;;;17.30;99.90;;;;;;5038448;28;20480;-67
2022/07/19 02:14:01;;;;;;;21.37;12.40;;;17.10;99.90;;;;;;5040338;28;20488;-67
2022/07/19 02:16:29;;;;;;;19.03;12.57;;;17.10;99.90;;;;;;5044269;28;20986;-67
2022/07/19 02:18:55;;;;;;;16.17;11.93;;;17.10;99.90;;;;;;5040147;28;20955;-67
2022/07/19 02:21:23;;;;;;;13.37;12.13;;;17.00;99.90;;;;;;5041616;28;20464;-67
2022/07/19 02:23:52;;;;;;;19.67;11.90;;;17.00;99.90;;;;;;5041774;28;20488;-68
2022/07/19 02:26:20;;;;;;;13.27;12.07;;;16.90;99.90;;;;;;5046137;28;20460;-68
2022/07/19 02:28:46;;;;;;;19.43;11.93;;;16.80;99.90;;;;;;5040918;28;20472;-68
2022/07/19 02:31:13;;;;;;;14.40;12.10;;;16.80;99.90;;;;;;5040118;28;20831;-67
2022/07/19 02:33:40;;;;;;;25.10;14.10;;;16.80;99.90;;;;;;5038674;28;20475;-68
2022/07/19 02:36:07;;;;;;;14.70;13.13;;;16.80;99.90;;;;;;5040193;28;21016;-67
2022/07/19 02:38:34;;;;;;;19.13;12.23;;;16.90;99.90;;;;;;5040387;28;20478;-68
2022/07/19 02:41:03;;;;;;;12.53;11.47;;;17.00;99.90;;;;;;5041490;28;20456;-67
2022/07/19 02:43:30;;;;;;;30.57;14.30;;;17.00;99.90;;;;;;5040973;28;20719;-68
2022/07/19 02:45:57;;;;;;;13.30;12.00;;;17.00;99.90;;;;;;5040683;28;20478;-67
2022/07/19 02:48:24;;;;;;;20.10;13.10;;;17.10;99.90;;;;;;5039459;28;20468;-68
2022/07/19 02:50:51;;;;;;;25.13;12.07;;;17.20;99.90;;;;;;5040898;28;20491;-68
2022/07/19 02:53:18;;;;;;;33.73;13.63;;;17.30;99.90;;;;;;5041295;28;20463;-67
2022/07/19 02:55:46;;;;;;;22.03;12.47;;;17.40;99.90;;;;;;5036132;28;20643;-67
2022/07/19 02:58:14;;;;;;;18.40;13.60;;;17.50;99.90;;;;;;5042190;28;20460;-67
2022/07/19 03:00:41;;;;;;;16.73;11.90;;;17.40;99.90;;;;;;5035062;28;20464;-67
2022/07/19 03:05:49;;;;;;;18.33;11.80;;;17.30;99.90;;;;;;5040866;28;20958;-68
2022/07/19 03:08:16;;;;;;;29.43;12.97;;;17.20;99.90;;;;;;5041775;28;20978;-67
2022/07/19 03:10:43;;;;;;;18.37;12.43;;;17.20;99.90;;;;;;5045267;28;20820;-67
2022/07/19 03:13:10;;;;;;;16.17;13.23;;;17.20;99.90;;;;;;5040178;28;20542;-67
2022/07/19 03:15:39;;;;;;;16.53;13.50;;;17.30;99.90;;;;;;5043894;28;20499;-67
2022/07/19 03:18:06;;;;;;;19.17;13.53;;;17.30;99.90;;;;;;5039042;28;20460;-67
2022/07/19 03:20:33;;;;;;;29.97;12.70;;;17.30;99.90;;;;;;5041030;28;20464;-68
2022/07/19 03:23:00;;;;;;;21.27;12.60;;;17.20;99.90;;;;;;5044279;28;20499;-67
2022/07/19 03:25:27;;;;;;;15.73;13.00;;;17.20;99.90;;;;;;5042729;28;20487;-68
2022/07/19 03:27:55;;;;;;;26.53;14.07;;;17.20;99.90;;;;;;5039776;28;20821;-67
2022/07/19 03:30:23;;;;;;;30.23;14.87;;;17.20;99.90;;;;;;5040179;28;20991;-67
2022/07/19 03:32:51;;;;;;;36.37;14.80;;;17.20;99.90;;;;;;5034581;28;20507;-68
2022/07/19 03:35:19;;;;;;;32.33;15.73;;;17.20;99.90;;;;;;5040705;28;20915;-67
2022/07/19 03:37:46;;;;;;;44.90;15.80;;;17.30;99.90;;;;;;5047042;28;20455;-67
2022/07/19 03:40:13;;;;;;;28.00;15.43;;;17.30;99.90;;;;;;5036876;28;20464;-68
2022/07/19 03:42:41;;;;;;;25.13;15.20;;;17.40;99.90;;;;;;5040424;28;20510;-68
2022/07/19 03:45:09;;;;;;;42.97;15.40;;;17.40;99.90;;;;;;5042164;28;20464;-68
2022/07/19 03:47:36;;;;;;;23.90;15.47;;;17.50;99.90;;;;;;5038345;28;20479;-68
2022/07/19 03:50:05;;;;;;;27.47;14.63;;;17.50;99.90;;;;;;5044010;28;20456;-67
2022/07/19 03:52:33;;;;;;;22.23;15.03;;;17.50;99.90;;;;;;5039463;28;20463;-67
2022/07/19 03:55:00;;;;;;;14.30;13.20;;;17.50;99.90;;;;;;5039197;28;20461;-68
2022/07/19 03:57:27;;;;;;;19.97;14.33;;;17.50;99.90;;;;;;5034801;28;20464;-67
2022/07/19 03:59:54;;;;;;;22.67;13.60;;;17.40;99.90;;;;;;5038943;28;20992;-68
2022/07/19 04:02:21;;;;;;;22.03;13.77;;;17.40;99.90;;;;;;5027699;28;20459;-68
2022/07/19 04:04:48;;;;;;;27.33;15.70;;;17.30;99.90;;;;;;5015015;28;20487;-68
2022/07/19 04:07:17;;;;;;;24.27;15.17;;;17.30;99.90;;;;;;5012256;28;20577;-68
2022/07/19 04:09:44;;;;;;;18.20;14.43;;;17.30;99.90;;;;;;5012246;28;21108;-68
2022/07/19 04:12:11;;;;;;;16.07;14.67;;;17.40;99.90;;;;;;5011847;28;20472;-68
2022/07/19 04:14:38;;;;;;;20.43;15.03;;;17.50;99.90;;;;;;5012616;28;21185;-68
2022/07/19 04:17:05;;;;;;;24.43;17.10;;;17.50;99.90;;;;;;5013556;28;21010;-68
2022/07/19 04:19:32;;;;;;;17.30;14.37;;;17.60;99.90;;;;;;5014050;28;20555;-68
2022/07/19 04:21:59;;;;;;;27.40;15.83;;;17.70;99.90;;;;;;5013537;28;20461;-68
2022/07/19 04:24:27;;;;;;;43.83;15.30;;;17.80;99.90;;;;;;5015471;28;20488;-68
2022/07/19 04:26:54;;;;;;;33.87;15.30;;;17.80;99.90;;;;;;5014259;28;21095;-67
2022/07/19 04:29:21;;;;;;;29.93;16.03;;;17.80;99.90;;;;;;5014488;28;20466;-68
2022/07/19 04:31:48;;;;;;;29.73;15.90;;;17.80;99.90;;;;;;5014977;28;20465;-68
2022/07/19 04:34:15;;;;;;;16.40;14.90;;;17.80;99.90;;;;;;5015414;28;20504;-68
2022/07/19 04:36:42;;;;;;;25.50;15.17;;;17.80;99.90;;;;;;5014674;28;20487;-67
2022/07/19 04:39:09;;;;;;;23.00;15.30;;;17.80;99.90;;;;;;5013468;28;20461;-67
2022/07/19 04:41:37;;;;;;;19.93;15.43;;;17.90;99.90;;;;;;5015317;28;20452;-67
2022/07/19 04:44:04;;;;;;;32.20;15.70;;;17.90;99.90;;;;;;5015489;28;20503;-67
2022/07/19 04:46:31;;;;;;;24.13;15.10;;;18.00;99.90;;;;;;5018655;28;22342;-67
2022/07/19 04:48:58;;;;;;;30.67;15.03;;;18.10;99.90;;;;;;5017250;28;20560;-67
2022/07/19 04:51:25;;;;;;;23.77;15.70;;;18.20;99.90;;;;;;5018653;28;20452;-67
2022/07/19 04:53:52;;;;;;;22.67;16.10;;;18.30;99.90;;;;;;5018680;28;20463;-67
2022/07/19 04:56:19;;;;;;;26.73;16.87;;;18.50;99.90;;;;;;5018491;28;20471;-67
2022/07/19 04:58:47;;;;;;;35.80;16.53;;;18.60;99.90;;;;;;5018442;28;20870;-67
2022/07/19 05:01:14;;;;;;;31.60;16.67;;;18.80;99.90;;;;;;5018780;28;20460;-67
2022/07/19 05:03:41;;;;;;;29.87;16.40;;;18.80;99.90;;;;;;5016750;28;20483;-66
2022/07/19 05:06:08;;;;;;;25.30;15.70;;;19.00;99.90;;;;;;5017910;28;20496;-67
2022/07/19 05:08:35;;;;;;;26.57;15.77;;;19.10;99.90;;;;;;5019031;28;20467;-67
2022/07/19 05:11:01;;;;;;;19.93;16.53;;;19.30;99.90;;;;;;5017948;28;20467;-67
2022/07/19 05:13:28;;;;;;;35.30;17.03;;;19.50;99.90;;;;;;5018311;28;21546;-67
2022/07/19 05:15:57;;;;;;;23.60;17.47;;;19.70;99.90;;;;;;5018759;28;21075;-68
2022/07/19 05:18:24;;;;;;;25.10;16.53;;;19.90;99.90;;;;;;5019228;28;20460;-67
2022/07/19 05:20:51;;;;;;;18.03;16.47;;;20.10;99.90;;;;;;5017132;28;20471;-68
2022/07/19 05:23:18;;;;;;;19.63;16.57;;;20.30;99.90;;;;;;5019469;28;20527;-67
2022/07/19 05:25:45;;;;;;;25.50;16.50;;;20.60;99.90;;;;;;5018666;28;20964;-66
2022/07/19 05:28:12;;;;;;;19.50;16.53;;;20.80;99.90;;;;;;5018197;28;20456;-68
2022/07/19 05:30:41;;;;;;;27.80;17.50;;;21.00;99.90;;;;;;5018764;28;21073;-67
2022/07/19 05:33:09;;;;;;;23.97;17.10;;;21.20;99.90;;;;;;5018813;28;20467;-67
2022/07/19 05:35:37;;;;;;;23.70;17.20;;;21.40;99.90;;;;;;5017692;28;20630;-68
2022/07/19 05:38:04;;;;;;;34.20;17.40;;;21.50;99.90;;;;;;5017608;28;20552;-67
2022/07/19 05:40:31;;;;;;;24.13;17.30;;;21.70;99.90;;;;;;5018047;28;20974;-68
2022/07/19 05:42:58;;;;;;;19.13;17.13;;;21.80;99.90;;;;;;5016791;28;20460;-68
2022/07/19 05:45:25;;;;;;;19.23;16.50;;;22.00;99.90;;;;;;5017995;28;20501;-67
2022/07/19 05:47:53;;;;;;;30.70;18.63;;;22.10;99.90;;;;;;5016852;28;20472;-67
2022/07/19 05:50:21;;;;;;;21.57;16.50;;;22.20;99.90;;;;;;5017591;28;20492;-67
2022/07/19 05:52:48;;;;;;;29.90;17.07;;;22.40;99.90;;;;;;5017056;28;21010;-67
2022/07/19 05:55:15;;;;;;;34.67;16.30;;;22.50;99.90;;;;;;5018852;28;20781;-67
2022/07/19 05:57:57;;;;;;;18.47;16.77;;;22.60;99.90;;;;;;5018075;28;21314;-67
2022/07/19 06:00:24;;;;;;;33.63;18.23;;;22.80;99.90;;;;;;5018445;28;20490;-67
2022/07/19 06:02:50;;;;;;;24.47;17.20;;;22.90;99.90;;;;;;5014767;28;20560;-67
2022/07/19 06:05:17;;;;;;;22.03;16.53;;;22.90;99.90;;;;;;5014054;28;20491;-68
2022/07/19 06:07:45;;;;;;;27.60;17.10;;;23.10;99.90;;;;;;5015616;28;20465;-67
2022/07/19 06:10:12;;;;;;;19.07;17.23;;;23.20;99.90;;;;;;5015888;28;21335;-67
2022/07/19 06:12:39;;;;;;;36.40;17.90;;;23.40;99.90;;;;;;5015210;28;20963;-67
2022/07/19 06:15:06;;;;;;;28.10;17.07;;;23.50;99.90;;;;;;5047584;28;20491;-67
2022/07/19 06:17:33;;;;;;;25.20;17.50;;;23.60;99.90;;;;;;5042711;28;20475;-67
2022/07/19 06:20:00;;;;;;;22.30;16.70;;;23.80;99.90;;;;;;5035050;28;20977;-68
2022/07/19 06:22:30;;;;;;;27.03;17.80;;;24.00;99.90;;;;;;5025323;28;20480;-68
2022/07/19 06:24:58;;;;;;;35.93;18.37;;;24.10;99.90;;;;;;5020345;28;20557;-67
2022/07/19 06:27:26;;;;;;;30.97;17.27;;;24.20;99.90;;;;;;5021135;28;20465;-68
2022/07/19 06:29:52;;;;;;;33.93;18.07;;;24.30;99.90;;;;;;5014226;28;20461;-66
2022/07/19 06:32:19;;;;;;;30.17;17.43;;;24.40;99.90;;;;;;5008769;28;21554;-66
2022/07/19 06:34:46;;;;;;;25.30;17.50;;;24.60;99.90;;;;;;5009973;28;20964;-67
2022/07/19 06:37:13;;;;;;;20.27;17.20;;;24.70;99.40;;;;;;5011512;28;20492;-67
2022/07/19 06:39:40;;;;;;;19.93;16.93;;;24.90;99.70;;;;;;5009696;28;20809;-68
2022/07/19 06:42:08;;;;;;;22.03;17.60;;;25.00;98.80;;;;;;5011955;28;20483;-68
2022/07/19 06:44:35;;;;;;;22.47;17.43;;;25.20;98.40;;;;;;5011873;28;20486;-68
2022/07/19 06:47:02;;;;;;;25.27;17.73;;;25.30;98.20;;;;;;5008019;28;20491;-68
2022/07/19 06:49:43;;;;;;;23.57;18.13;;;25.40;98.20;;;;;;5020367;28;20495;-67
2022/07/19 06:52:10;;;;;;;38.63;19.30;;;25.50;97.30;;;;;;5006461;28;20476;-68
2022/07/19 06:54:52;;;;;;;38.77;18.70;;;25.80;97.00;;;;;;5006057;28;20480;-67
2022/07/19 06:57:20;;;;;;;41.40;18.30;;;26.00;96.20;;;;;;5010249;28;20479;-67
2022/07/19 06:59:47;;;;;;;42.10;18.30;;;26.20;96.10;;;;;;5032476;28;20460;-68
2022/07/19 07:02:14;;;;;;;53.50;19.13;;;26.50;95.50;;;;;;5030404;28;20468;-68
2022/07/19 07:04:42;;;;;;;56.60;18.17;;;26.70;95.00;;;;;;5035715;28;20484;-68
2022/07/19 07:07:09;;;;;;;33.90;17.73;;;26.90;94.90;;;;;;5035711;28;20471;-68
2022/07/19 07:09:35;;;;;;;24.33;16.93;;;27.00;93.80;;;;;;5013744;28;20950;-68
2022/07/19 07:12:02;;;;;;;32.80;17.10;;;27.10;92.80;;;;;;5009033;28;20978;-68
2022/07/19 07:14:30;;;;;;;38.80;18.23;;;27.30;91.50;;;;;;5010503;28;20852;-69
2022/07/19 07:16:57;;;;;;;31.07;17.70;;;27.30;91.80;;;;;;5010829;28;20464;-68
2022/07/19 07:19:24;;;;;;;42.57;18.47;;;27.40;91.30;;;;;;5010761;28;20550;-68
2022/07/19 07:21:51;;;;;;;28.23;18.03;;;27.60;91.30;;;;;;5010790;28;20472;-68
2022/07/19 07:24:18;;;;;;;33.03;17.90;;;27.90;90.10;;;;;;5022646;28;20495;-68
2022/07/19 07:26:45;;;;;;;29.57;17.67;;;27.80;87.80;;;;;;5037080;28;20483;-68
2022/07/19 07:29:11;;;;;;;19.47;17.07;;;27.80;87.90;;;;;;5038351;28;20466;-68
2022/07/19 07:31:40;;;;;;;33.30;17.97;;;27.90;86.90;;;;;;5028381;28;20543;-69
2022/07/19 07:34:07;;;;;;;24.27;17.83;;;28.00;86.80;;;;;;5010494;28;20884;-68
2022/07/19 07:36:34;;;;;;;41.43;18.00;;;28.20;86.00;;;;;;5010425;28;20479;-68
2022/07/19 07:39:01;;;;;;;28.80;18.60;;;28.40;85.20;;;;;;5011114;28;20924;-68
2022/07/19 07:41:27;;;;;;;45.27;18.50;;;28.60;84.60;;;;;;5010122;28;21259;-68
2022/07/19 07:43:54;;;;;;;40.07;18.10;;;28.80;84.20;;;;;;5011837;28;20452;-68
2022/07/19 07:46:21;;;;;;;21.17;17.20;;;28.90;81.70;;;;;;5010369;28;21010;-68
2022/07/19 07:48:49;;;;;;;19.33;17.63;;;29.10;81.70;;;;;;5008580;28;20981;-67
2022/07/19 07:51:16;;;;;;;21.80;17.77;;;29.30;80.80;;;;;;5010009;28;20751;-67
2022/07/19 07:53:43;;;;;;;22.40;17.97;;;29.50;78.90;;;;;;5010663;28;20471;-68
2022/07/19 07:56:10;;;;;;;29.70;18.33;;;29.70;78.40;;;;;;5011286;28;20866;-67
2022/07/19 07:58:37;;;;;;;24.33;18.30;;;29.70;75.70;;;;;;5008560;28;20460;-68
2022/07/19 08:01:04;;;;;;;23.30;18.13;;;30.00;75.00;;;;;;5010717;28;20523;-68
2022/07/19 08:03:31;;;;;;;25.30;18.60;;;30.10;73.80;;;;;;5038887;28;20947;-68
2022/07/19 08:05:59;;;;;;;40.53;18.90;;;30.10;73.10;;;;;;5019898;28;20484;-68
2022/07/19 08:08:27;;;;;;;26.67;18.10;;;30.40;72.50;;;;;;5009777;28;20966;-69
2022/07/19 08:10:54;;;;;;;51.63;20.27;;;30.50;72.20;;;;;;5009864;28;20562;-69
2022/07/19 08:13:21;;;;;;;25.33;18.90;;;30.60;70.90;;;;;;5009219;28;20550;-68
2022/07/19 08:15:49;;;;;;;27.03;18.90;;;30.90;70.90;;;;;;5010101;28;20499;-68
2022/07/19 08:18:16;;;;;;;23.03;17.67;;;31.00;67.90;;;;;;5010870;28;20881;-68
2022/07/19 08:20:43;;;;;;;25.03;18.03;;;31.20;69.40;;;;;;5013498;28;20463;-67
2022/07/19 08:23:11;;;;;;;30.43;18.20;;;31.40;65.50;;;;;;5014090;28;20602;-68
2022/07/19 08:25:38;;;;;;;20.17;18.10;;;32.20;64.40;;;;;;5013064;28;21061;-68
2022/07/19 08:28:05;;;;;;;22.53;18.90;;;32.90;61.70;;;;;;5015682;28;20983;-67
2022/07/19 08:30:33;;;;;;;20.23;18.20;;;33.20;59.90;;;;;;5015253;28;21506;-68
2022/07/19 08:33:00;;;;;;;19.17;17.77;;;33.80;57.80;;;;;;5015124;28;20463;-69
2022/07/19 08:35:27;;;;;;;23.33;18.43;;;34.60;56.50;;;;;;5015658;28;20948;-67
2022/07/19 08:37:54;;;;;;;18.40;16.90;;;35.30;53.20;;;;;;5014300;28;20766;-69
2022/07/19 08:40:22;;;;;;;19.20;17.60;;;35.30;51.10;;;;;;5014167;28;20499;-69
2022/07/19 08:42:51;;;;;;;19.33;17.40;;;34.70;50.90;;;;;;5013944;28;20849;-68
2022/07/19 08:45:18;;;;;;;21.60;17.93;;;35.30;51.30;;;;;;5013855;28;20483;-69
2022/07/19 08:47:46;;;;;;;18.93;17.53;;;36.10;48.30;;;;;;5014149;28;20851;-68
2022/07/19 08:50:13;;;;;;;34.13;19.10;;;36.80;46.90;;;;;;5014555;28;20463;-69
2022/07/19 08:52:41;;;;;;;23.77;17.10;;;36.90;45.10;;;;;;5020085;28;20479;-69
2022/07/19 08:55:09;;;;;;;19.23;17.43;;;37.40;46.00;;;;;;5032187;28;21015;-68
2022/07/19 09:00:22;;;;;;;20.23;18.03;;;38.70;41.20;;;;;;5034022;28;20612;-69
2022/07/19 09:02:54;;;;;;;20.77;18.10;;;38.40;40.50;;;;;;5015998;28;20937;-68
2022/07/19 09:05:21;;;;;;;22.00;18.27;;;38.10;40.00;;;;;;5013619;28;20500;-69
2022/07/19 09:08:02;;;;;;;20.30;18.33;;;38.10;39.20;;;;;;5017516;28;20464;-69
2022/07/19 09:10:29;;;;;;;27.57;17.80;;;38.10;38.90;;;;;;5038939;28;20468;-69
2022/07/19 09:13:08;;;;;;;19.50;17.60;;;38.60;39.70;;;;;;5037590;28;20460;-69
2022/07/19 09:15:54;;;;;;;18.67;17.03;;;39.20;37.70;;;;;;5035613;28;20853;-69
2022/07/19 09:18:23;;;;;;;19.27;17.30;;;39.40;36.80;;;;;;5015699;28;20585;-70
2022/07/19 09:20:51;;;;;;;20.73;17.10;;;39.80;36.30;;;;;;5012956;28;20834;-69
2022/07/19 09:23:19;;;;;;;19.80;17.80;;;40.00;34.70;;;;;;5013601;28;20844;-68
2022/07/19 09:25:48;;;;;;;18.20;16.60;;;40.40;34.30;;;;;;5014031;28;20459;-70
2022/07/19 09:28:17;;;;;;;18.53;16.80;;;39.90;33.50;;;;;;5011332;28;20559;-69
2022/07/19 09:30:46;;;;;;;19.13;16.97;;;40.40;32.80;;;;;;5035159;28;20556;-70
2022/07/19 09:33:15;;;;;;;18.13;16.47;;;40.90;31.70;;;;;;5009550;28;20471;-69
2022/07/19 09:35:44;;;;;;;18.60;16.83;;;41.00;30.80;;;;;;5010713;28;21117;-69
2022/07/19 09:38:23;;;;;;;17.50;16.20;;;41.30;30.80;;;;;;5011542;28;20475;-69
2022/07/19 09:40:50;;;;;;;18.60;17.10;;;41.60;30.40;;;;;;5011753;28;20620;-69
2022/07/19 09:43:22;;;;;;;21.23;16.73;;;42.50;29.80;;;;;;5011696;28;20502;-70
2022/07/19 09:46:04;;;;;;;17.93;16.07;;;41.80;28.80;;;;;;5009916;28;20556;-69
2022/07/19 09:48:44;;;;;;;18.93;16.93;;;41.70;28.00;;;;;;5009699;28;23031;-69
2022/07/19 09:51:11;;;;;;;17.43;16.00;;;41.80;28.00;;;;;;5011596;28;20464;-70
2022/07/19 09:53:39;;;;;;;18.47;16.60;;;42.20;28.00;;;;;;5011116;28;20465;-70
2022/07/19 09:56:06;;;;;;;17.70;16.00;;;42.30;26.60;;;;;;5009355;28;20483;-69
2022/07/19 10:01:15;;;;;;;16.30;15.20;;;42.60;25.70;;;;;;5040466;28;20460;-69
2022/07/19 10:03:44;;;;;;;16.60;15.30;;;42.40;25.60;;;;;;5023348;28;20476;-69
2022/07/19 10:06:11;;;;;;;17.77;16.30;;;42.60;25.50;;;;;;5011970;28;20461;-69
2022/07/19 10:08:38;;;;;;;17.53;15.93;;;42.90;25.70;;;;;;5010573;28;20949;-69
2022/07/19 10:11:05;;;;;;;18.23;16.53;;;43.60;25.00;;;;;;5011414;28;20471;-69
2022/07/19 10:13:34;;;;;;;17.53;16.10;;;43.30;25.80;;;;;;5011110;28;20464;-69
2022/07/19 10:16:04;;;;;;;17.13;15.47;;;43.50;25.40;;;;;;5009644;28;20497;-70
2022/07/19 10:18:37;;;;;;;17.53;15.73;;;43.20;23.20;;;;;;5010469;28;20801;-70
2022/07/19 10:21:04;;;;;;;16.07;14.80;;;42.80;23.90;;;;;;5034829;28;20545;-69
2022/07/19 10:23:34;;;;;;;16.40;15.20;;;43.20;24.90;;;;;;5034073;28;20467;-69
2022/07/19 10:26:01;;;;;;;15.70;14.50;;;43.40;23.90;;;;;;5037432;28;20745;-69
2022/07/19 10:28:35;;;;;;;16.57;15.50;;;42.90;22.90;;;;;;5036268;28;20475;-70
2022/07/19 10:31:03;;;;;;;16.40;14.93;;;43.00;22.80;;;;;;5006631;28;20468;-70
2022/07/19 10:33:33;;;;;;;17.07;15.47;;;42.30;23.50;;;;;;5008933;28;20859;-68
2022/07/19 10:36:34;;;;;;;21.07;14.90;;;42.70;24.60;;;;;;5005979;28;20861;-70
2022/07/19 10:39:20;;;;;;;16.20;15.00;;;43.40;22.70;;;;;;5008132;28;20468;-70
2022/07/19 10:42:19;;;;;;;16.33;14.80;;;43.40;23.70;;;;;;5008503;28;20467;-70
2022/07/19 10:45:16;;;;;;;16.27;14.90;;;44.30;23.10;;;;;;5006090;28;20461;-70
2022/07/19 10:48:03;;;;;;;17.17;15.60;;;44.00;23.00;;;;;;5006396;28;20486;-69
2022/07/19 10:50:54;;;;;;;20.00;15.90;;;44.80;22.50;;;;;;5007612;28;21069;-69
2022/07/19 10:53:59;;;;;;;16.97;15.30;;;43.80;22.90;;;;;;5006356;28;21250;-70
2022/07/19 10:56:29;;;;;;;17.50;15.10;;;43.40;23.50;;;;;;5027140;28;20797;-70
2022/07/19 10:58:58;;;;;;;16.70;15.20;;;43.40;23.40;;;;;;5016742;28;20460;-69
2022/07/19 11:01:29;;;;;;;17.57;15.73;;;43.70;22.60;;;;;;5006673;28;20471;-70
2022/07/19 11:04:28;;;;;;;16.50;15.30;;;44.00;23.00;;;;;;5008399;28;22107;-69
2022/07/19 11:07:14;;;;;;;17.20;15.90;;;44.70;21.80;;;;;;5010971;28;20464;-70
2022/07/19 11:09:46;;;;;;;17.60;16.10;;;44.60;21.80;;;;;;5009720;28;21283;-69
2022/07/19 11:12:32;;;;;;;17.20;15.70;;;44.70;21.40;;;;;;5010454;28;20464;-70
2022/07/19 11:15:01;;;;;;;18.50;16.80;;;45.20;21.80;;;;;;5009249;28;20484;-69
2022/07/19 11:17:29;;;;;;;32.03;16.77;;;45.60;21.30;;;;;;5010145;28;20492;-69
2022/07/19 11:20:07;;;;;;;17.40;16.20;;;45.20;20.90;;;;;;5010758;28;20480;-70
2022/07/19 11:22:36;;;;;;;21.13;16.00;;;45.40;20.80;;;;;;5008579;28;20725;-70
2022/07/19 11:25:05;;;;;;;18.03;16.27;;;45.10;21.20;;;;;;5010445;28;20472;-70
2022/07/19 11:27:33;;;;;;;16.70;15.77;;;45.20;20.70;;;;;;5010059;28;21523;-70
2022/07/19 11:30:01;;;;;;;17.33;15.93;;;45.50;20.60;;;;;;5007232;28;21538;-70
2022/07/19 11:32:30;;;;;;;16.87;15.40;;;45.90;20.30;;;;;;5015604;28;20477;-70
2022/07/19 11:34:58;;;;;;;26.20;15.87;;;45.90;19.70;;;;;;5036641;28;20843;-69
2022/07/19 11:37:27;;;;;;;17.47;16.47;;;45.70;18.80;;;;;;5026800;28;20493;-70
2022/07/19 11:39:57;;;;;;;16.03;15.13;;;45.70;19.10;;;;;;5003439;28;21015;-70
2022/07/19 11:42:35;;;;;;;17.23;16.13;;;45.50;18.90;;;;;;5008680;28;21135;-70
2022/07/19 11:45:13;;;;;;;16.27;15.33;;;45.90;19.20;;;;;;5006564;28;20466;-70
2022/07/19 11:47:46;;;;;;;17.40;16.10;;;46.20;19.30;;;;;;5008950;28;20468;-70
2022/07/19 11:50:14;;;;;;;18.43;16.33;;;46.40;19.00;;;;;;5008897;28;20498;-70
2022/07/19 11:52:50;;;;;;;17.90;16.50;;;47.00;18.60;;;;;;5006520;28;21069;-70
2022/07/19 11:55:19;;;;;;;16.40;15.50;;;47.00;18.10;;;;;;5008663;28;20467;-70
2022/07/19 11:57:47;;;;;;;16.67;15.37;;;46.90;17.70;;;;;;5008326;28;20461;-70
2022/07/19 12:00:15;;;;;;;16.20;14.93;;;46.30;17.80;;;;;;5008477;28;20460;-69
2022/07/19 12:03:03;;;;;;;17.90;16.03;;;46.10;18.80;;;;;;5005158;28;20499;-70
2022/07/19 12:05:33;;;;;;;17.90;15.97;;;46.30;18.70;;;;;;5008063;28;20968;-70
2022/07/19 12:08:02;;;;;;;17.23;15.60;;;46.30;17.60;;;;;;5008222;28;20564;-70
2022/07/19 12:10:40;;;;;;;16.10;15.00;;;46.10;17.60;;;;;;5010178;28;20856;-70
2022/07/19 12:13:09;;;;;;;17.03;15.80;;;46.20;18.00;;;;;;5008293;28;20467;-69
2022/07/19 12:15:48;;;;;;;19.43;16.27;;;46.40;17.90;;;;;;5006028;28;20491;-69
2022/07/19 12:18:18;;;;;;;29.23;16.80;;;46.40;17.80;;;;;;5008456;28;20564;-69
2022/07/19 12:20:45;;;;;;;18.00;15.70;;;46.40;17.80;;;;;;5007432;28;20546;-69
2022/07/19 12:23:14;;;;;;;16.83;15.83;;;47.20;18.50;;;;;;5008691;28;20463;-70
2022/07/19 12:25:41;;;;;;;16.93;15.23;;;46.80;17.90;;;;;;5009223;28;20459;-70
2022/07/19 12:28:09;;;;;;;16.70;15.40;;;47.50;18.40;;;;;;5009069;28;20685;-70
2022/07/19 12:30:36;;;;;;;17.30;15.67;;;47.70;18.00;;;;;;5009289;28;20658;-69
2022/07/19 12:33:09;;;;;;;17.37;16.07;;;48.00;17.10;;;;;;5021585;28;20476;-69
2022/07/19 12:35:45;;;;;;;17.50;16.23;;;47.80;17.70;;;;;;5037519;28;20496;-70
2022/07/19 12:38:12;;;;;;;21.73;15.30;;;47.50;17.00;;;;;;5034844;28;20460;-70
2022/07/19 12:40:40;;;;;;;18.80;16.70;;;47.20;17.30;;;;;;5017313;28;20800;-68
2022/07/19 12:43:11;;;;;;;26.67;17.03;;;46.40;17.30;;;;;;5009342;28;20452;-69
2022/07/19 12:45:41;;;;;;;19.83;16.00;;;47.00;17.20;;;;;;5008702;28;20939;-69
2022/07/19 12:48:10;;;;;;;23.70;16.13;;;47.10;17.30;;;;;;5009004;28;20598;-70